Cockermouth, United Kingdom
Current Conditions -  °F | °C
As of 3:50 AM on Sunday 26 Oct 2014 (Local Time) from EGOM Reporting Station
Broken Clouds Broken Clouds  
Wind Chill: 52°   Ceiling: 3300
Heat Index: 52°   Visibility: 6mi
Dew Point: 45°   Wind: 31mph
Humidity: 76%   Direction: 240°WSW
Pressure: 29.77"   Gusts: 45mph
Location:  54.66°N, 3.36°W
Report Text: EGOM 260250Z AUTO 24027G39KT 9999 FEW020/// BKN033/// 11/07 Q1008 RERA
Loading
Personal Weather Stations






























Interactive Weather Map
Tropical Storm Tracking
New forecast layout! Learn more

10-Day Weather Forecast

Advertisements
Track Severe Weather on mobile